Time;durP1;ratioP1;P1;durP2;ratioP2;P2;SDS_P1;SDS_P2;PMS_P1;PMS_P2;Temp;Humidity;BMP_temperature;BMP_pressure;BME280_temperature;BME280_humidity;BME280_pressure;Samples;Min_cycle;Max_cycle;Signal;HPM_P1;HPM_P2
2023/04/19 00:00:39;;;;;;;13.98;7.95;;;5.10;99.90;;;;;;5029537;28;20045;-43
2023/04/19 00:03:09;;;;;;;10.40;7.25;;;6.10;99.90;;;;;;5006842;28;20676;-43
2023/04/19 00:05:37;;;;;;;9.52;6.88;;;6.10;99.90;;;;;;5028385;28;20103;-42
2023/04/19 00:08:03;;;;;;;11.95;7.57;;;7.00;99.90;;;;;;5033915;28;20049;-43
2023/04/19 00:10:29;;;;;;;12.63;8.43;;;5.80;99.90;;;;;;5030782;28;20037;-42
2023/04/19 00:12:55;;;;;;;10.73;7.00;;;6.90;99.90;;;;;;5024282;28;20052;-43
2023/04/19 00:15:20;;;;;;;12.98;7.60;;;7.10;99.90;;;;;;5033744;28;20059;-43
2023/04/19 00:17:46;;;;;;;10.90;7.03;;;5.90;99.90;;;;;;5018416;28;20045;-42
2023/04/19 00:20:12;;;;;;;9.95;6.60;;;5.90;99.90;;;;;;5033243;28;20179;-42
2023/04/19 00:22:38;;;;;;;10.52;6.72;;;5.90;99.90;;;;;;5038305;28;20042;-42
2023/04/19 00:25:04;;;;;;;10.02;6.18;;;5.80;99.90;;;;;;5037497;28;20445;-43
2023/04/19 00:27:30;;;;;;;9.00;6.80;;;5.90;99.90;;;;;;5032470;28;20038;-43
2023/04/19 00:29:59;;;;;;;12.55;7.90;;;5.70;99.90;;;;;;5031983;28;20120;-43
2023/04/19 00:32:24;;;;;;;10.80;7.18;;;5.90;99.90;;;;;;5032295;28;20160;-41
2023/04/19 00:34:50;;;;;;;11.25;7.43;;;5.70;99.90;;;;;;5030318;28;20042;-41
2023/04/19 00:37:16;;;;;;;11.32;7.18;;;6.70;99.90;;;;;;5034999;28;20089;-42
2023/04/19 00:39:42;;;;;;;12.52;7.80;;;5.80;99.90;;;;;;5029321;28;20133;-44
2023/04/19 00:42:07;;;;;;;9.93;6.45;;;5.60;99.90;;;;;;5033781;28;20053;-42
2023/04/19 00:44:33;;;;;;;11.15;6.90;;;5.60;99.90;;;;;;5039932;28;20037;-43
2023/04/19 00:46:59;;;;;;;9.77;6.57;;;6.70;99.90;;;;;;5016497;28;20088;-41
2023/04/19 00:49:26;;;;;;;10.75;7.32;;;5.60;99.90;;;;;;5031685;28;20056;-43
2023/04/19 00:51:52;;;;;;;9.57;6.93;;;5.50;99.90;;;;;;5039443;28;20039;-43
2023/04/19 00:54:18;;;;;;;8.93;6.70;;;5.50;99.90;;;;;;5039584;28;20156;-42
2023/04/19 00:56:45;;;;;;;12.30;7.65;;;5.60;99.90;;;;;;5037594;28;20095;-42
2023/04/19 00:59:11;;;;;;;11.60;7.68;;;5.50;99.90;;;;;;5035889;28;20056;-43
2023/04/19 01:01:38;;;;;;;9.82;7.18;;;5.50;99.90;;;;;;5013368;28;20124;-43
2023/04/19 01:04:07;;;;;;;10.77;6.95;;;5.40;99.90;;;;;;5028911;28;20185;-43
2023/04/19 01:06:39;;;;;;;11.00;6.93;;;5.60;99.90;;;;;;5033207;28;20059;-43
2023/04/19 01:09:04;;;;;;;9.25;7.22;;;5.20;99.90;;;;;;5025869;28;20045;-42
2023/04/19 01:11:30;;;;;;;11.98;7.47;;;5.70;99.90;;;;;;5032560;28;20045;-42
2023/04/19 01:13:57;;;;;;;13.95;7.47;;;5.30;99.90;;;;;;5037724;28;20106;-43
2023/04/19 01:16:25;;;;;;;11.10;8.10;;;5.10;99.90;;;;;;5024948;28;20066;-42
2023/04/19 01:18:51;;;;;;;12.07;8.25;;;5.00;99.90;;;;;;5017434;28;20068;-43
2023/04/19 01:21:17;;;;;;;13.98;9.32;;;5.10;99.90;;;;;;5026343;28;20037;-43
2023/04/19 01:23:43;;;;;;;11.23;7.90;;;5.40;99.90;;;;;;5035047;28;20049;-41
2023/04/19 01:26:09;;;;;;;12.95;8.65;;;4.90;99.90;;;;;;5031835;28;20066;-43
2023/04/19 01:28:34;;;;;;;14.15;9.52;;;5.00;99.90;;;;;;5027496;28;20406;-42
2023/04/19 01:31:00;;;;;;;14.70;8.13;;;5.00;99.90;;;;;;5033675;28;20128;-42
2023/04/19 01:33:26;;;;;;;16.13;8.65;;;5.00;99.90;;;;;;5028344;28;20049;-42
2023/04/19 01:35:51;;;;;;;13.45;10.07;;;4.80;99.90;;;;;;5029875;28;20475;-42
2023/04/19 01:38:17;;;;;;;13.45;10.68;;;4.80;99.90;;;;;;5031115;28;20200;-44
2023/04/19 01:40:43;;;;;;;16.65;11.02;;;5.60;99.90;;;;;;5018249;28;20041;-43
2023/04/19 01:43:11;;;;;;;15.70;10.75;;;6.10;99.90;;;;;;5036523;28;20454;-43
2023/04/19 01:45:37;;;;;;;20.40;12.18;;;5.40;99.90;;;;;;5032656;28;20119;-42
2023/04/19 01:48:06;;;;;;;19.85;12.75;;;4.80;99.90;;;;;;5026721;28;20718;-45
2023/04/19 01:50:32;;;;;;;17.40;12.15;;;5.00;99.90;;;;;;5032911;28;20049;-44
2023/04/19 01:52:58;;;;;;;18.33;12.43;;;4.90;99.90;;;;;;5027553;28;20448;-44
2023/04/19 01:55:24;;;;;;;17.58;12.88;;;4.80;99.90;;;;;;5027745;28;20107;-43
2023/04/19 01:57:51;;;;;;;18.95;12.80;;;5.20;99.90;;;;;;5033141;28;20136;-45
2023/04/19 02:00:17;;;;;;;20.42;12.38;;;5.00;99.90;;;;;;5032945;28;20464;-43
2023/04/19 02:02:43;;;;;;;17.40;12.52;;;4.90;99.90;;;;;;5034041;28;20044;-47
2023/04/19 02:05:10;;;;;;;17.23;11.82;;;5.10;99.90;;;;;;5015686;28;20168;-43
2023/04/19 02:07:36;;;;;;;19.67;11.52;;;4.70;99.90;;;;;;5037333;28;20088;-44
2023/04/19 02:10:02;;;;;;;19.92;12.38;;;4.70;99.90;;;;;;5034726;28;20041;-43
2023/04/19 02:12:29;;;;;;;19.65;12.75;;;4.90;99.90;;;;;;5031500;28;20049;-46
2023/04/19 02:14:56;;;;;;;14.63;11.40;;;4.70;99.90;;;;;;4996393;28;1102473;-44
2023/04/19 02:17:25;;;;;;;15.38;11.60;;;5.80;99.90;;;;;;5027992;28;20518;-45
2023/04/19 02:19:51;;;;;;;17.55;11.85;;;4.60;99.90;;;;;;5033212;28;20051;-44
2023/04/19 02:22:17;;;;;;;21.20;11.88;;;4.60;99.90;;;;;;5034054;28;20072;-46
2023/04/19 02:24:44;;;;;;;16.52;10.45;;;4.60;99.90;;;;;;5029551;28;20041;-43
2023/04/19 02:27:10;;;;;;;19.00;11.43;;;4.80;99.90;;;;;;5040356;28;20045;-45
2023/04/19 02:29:37;;;;;;;17.13;11.10;;;4.60;99.90;;;;;;5032470;28;20060;-44
2023/04/19 02:32:05;;;;;;;17.38;10.77;;;4.60;99.90;;;;;;5037268;28;20203;-44
2023/04/19 02:34:34;;;;;;;17.35;11.23;;;4.80;99.90;;;;;;5036707;28;20048;-45
2023/04/19 02:37:00;;;;;;;15.07;10.40;;;4.80;99.90;;;;;;5035321;28;20099;-43
2023/04/19 02:39:26;;;;;;;17.45;11.05;;;5.70;99.90;;;;;;5009152;28;20045;-44
2023/04/19 02:41:52;;;;;;;17.85;11.88;;;4.60;99.90;;;;;;5010930;28;20475;-43
2023/04/19 02:44:17;;;;;;;16.98;10.55;;;4.40;99.90;;;;;;5031391;28;20049;-47
2023/04/19 02:46:52;;;;;;;14.75;10.05;;;4.40;99.90;;;;;;5033860;28;20141;-44
2023/04/19 02:49:19;;;;;;;13.98;9.70;;;4.70;99.90;;;;;;5032470;28;20616;-43
2023/04/19 02:51:45;;;;;;;16.33;9.73;;;4.30;99.90;;;;;;5034791;28;20060;-46
2023/04/19 02:54:11;;;;;;;12.85;9.40;;;4.40;99.90;;;;;;5030013;28;20133;-43
2023/04/19 02:56:37;;;;;;;13.60;8.55;;;4.40;99.90;;;;;;5036864;28;20053;-43
2023/04/19 02:59:04;;;;;;;13.93;8.50;;;4.40;99.90;;;;;;5036861;28;20493;-43
2023/04/19 03:01:30;;;;;;;11.90;8.07;;;4.40;99.90;;;;;;5035665;28;20530;-45
2023/04/19 03:03:56;;;;;;;13.75;8.32;;;5.10;99.90;;;;;;5011613;28;20530;-43
2023/04/19 03:06:22;;;;;;;13.52;8.57;;;5.10;99.90;;;;;;5033924;28;20544;-45
2023/04/19 03:08:47;;;;;;;15.50;8.98;;;4.40;99.90;;;;;;5033766;28;20045;-45
2023/04/19 03:11:15;;;;;;;12.15;8.27;;;4.30;99.90;;;;;;5015441;28;20048;-45
2023/04/19 03:13:40;;;;;;;12.95;8.43;;;4.40;99.90;;;;;;5029320;28;20089;-45
2023/04/19 03:16:07;;;;;;;12.80;8.65;;;4.30;99.90;;;;;;5032021;28;20152;-44
2023/04/19 03:18:33;;;;;;;13.90;8.38;;;4.10;99.90;;;;;;5028073;28;20049;-46
2023/04/19 03:20:59;;;;;;;12.63;7.75;;;4.30;99.90;;;;;;5032648;28;20086;-44
2023/04/19 03:23:28;;;;;;;14.63;8.68;;;4.20;99.90;;;;;;5029872;28;20080;-44
2023/04/19 03:25:55;;;;;;;14.07;8.18;;;4.20;99.90;;;;;;5035335;28;20041;-44
2023/04/19 03:28:20;;;;;;;11.57;7.70;;;4.20;99.90;;;;;;5035234;28;20048;-44
2023/04/19 03:30:46;;;;;;;13.88;7.95;;;4.20;99.90;;;;;;5037923;28;20040;-43
2023/04/19 03:33:12;;;;;;;14.88;8.50;;;4.20;99.90;;;;;;5030204;28;20847;-44
2023/04/19 03:35:37;;;;;;;11.02;8.07;;;4.20;99.90;;;;;;5029255;28;20135;-44
2023/04/19 03:38:03;;;;;;;12.40;8.43;;;4.10;99.90;;;;;;5028451;28;20049;-43
2023/04/19 03:40:31;;;;;;;12.93;8.27;;;4.10;99.90;;;;;;5032243;28;20049;-44
2023/04/19 03:42:57;;;;;;;14.52;8.45;;;4.00;99.90;;;;;;5031504;28;20048;-45
2023/04/19 03:45:23;;;;;;;14.88;8.82;;;4.50;99.90;;;;;;5028246;28;20041;-43
2023/04/19 03:47:49;;;;;;;11.07;7.35;;;4.20;99.90;;;;;;5030533;28;20049;-45
2023/04/19 03:50:14;;;;;;;13.20;8.10;;;3.80;99.90;;;;;;5034770;28;20053;-44
2023/04/19 03:52:40;;;;;;;11.50;8.23;;;3.70;99.90;;;;;;5035615;28;20088;-44
2023/04/19 03:55:06;;;;;;;15.48;9.60;;;3.80;99.90;;;;;;5030564;28;20068;-44
2023/04/19 03:57:32;;;;;;;12.30;8.23;;;3.60;99.90;;;;;;5027902;28;20049;-44
2023/04/19 03:59:58;;;;;;;14.52;8.60;;;3.70;99.90;;;;;;5030125;28;20045;-45
2023/04/19 04:02:24;;;;;;;11.75;8.30;;;3.70;99.90;;;;;;5028565;28;20975;-43
2023/04/19 04:04:54;;;;;;;11.70;8.85;;;3.60;99.90;;;;;;5007647;28;20045;-43
2023/04/19 04:07:20;;;;;;;13.25;8.18;;;3.80;99.90;;;;;;5014990;28;20056;-45
2023/04/19 04:09:47;;;;;;;16.50;8.50;;;3.50;99.90;;;;;;5009380;28;20045;-43
2023/04/19 04:12:12;;;;;;;11.60;8.57;;;3.60;99.90;;;;;;5035171;28;20076;-43
2023/04/19 04:14:38;;;;;;;13.30;8.88;;;3.60;99.90;;;;;;5035319;28;20149;-45
2023/04/19 04:17:04;;;;;;;12.75;8.40;;;3.50;99.90;;;;;;5029036;28;20361;-45
2023/04/19 04:19:29;;;;;;;11.65;8.07;;;3.50;99.90;;;;;;5033294;28;20175;-43
2023/04/19 04:21:55;;;;;;;13.98;7.93;;;3.50;99.90;;;;;;5033694;28;20122;-43
2023/04/19 04:24:21;;;;;;;13.70;8.48;;;3.40;99.90;;;;;;5025150;28;20037;-43
2023/04/19 04:26:48;;;;;;;10.95;7.18;;;4.40;99.90;;;;;;5026407;28;20045;-44
2023/04/19 04:29:15;;;;;;;12.43;7.03;;;3.50;99.90;;;;;;5004313;28;20685;-43
2023/04/19 04:31:41;;;;;;;13.35;7.45;;;3.50;99.90;;;;;;5013357;28;20061;-44
2023/04/19 04:34:08;;;;;;;10.52;6.72;;;3.50;99.90;;;;;;5027646;28;20048;-44
2023/04/19 04:36:35;;;;;;;11.85;7.50;;;3.50;99.90;;;;;;5026856;28;20034;-43
2023/04/19 04:39:01;;;;;;;13.27;7.30;;;3.50;99.90;;;;;;5021215;28;20092;-43
2023/04/19 04:41:30;;;;;;;12.32;7.35;;;3.50;99.90;;;;;;5028844;28;20056;-44
2023/04/19 04:44:00;;;;;;;9.95;6.72;;;3.40;99.90;;;;;;5033101;28;20482;-42
2023/04/19 04:46:25;;;;;;;10.05;6.78;;;3.30;99.90;;;;;;5034806;28;20045;-44
2023/04/19 04:48:52;;;;;;;12.63;7.65;;;3.40;99.90;;;;;;5031931;28;20048;-43
2023/04/19 04:51:18;;;;;;;12.23;7.45;;;3.40;99.90;;;;;;5026301;28;20749;-44
2023/04/19 04:53:44;;;;;;;12.10;7.10;;;3.50;99.90;;;;;;5029915;28;20053;-44
2023/04/19 04:56:09;;;;;;;12.50;6.97;;;3.40;99.90;;;;;;5032441;28;20045;-43
2023/04/19 04:58:35;;;;;;;10.63;7.10;;;3.60;99.90;;;;;;5029590;28;20184;-43
2023/04/19 05:01:01;;;;;;;11.82;6.72;;;2.70;99.90;;;;;;5027373;28;20045;-44
2023/04/19 05:03:27;;;;;;;10.52;6.05;;;3.00;99.90;;;;;;5033837;28;20136;-45
2023/04/19 05:05:52;;;;;;;13.63;7.78;;;3.70;99.90;;;;;;5033655;28;20799;-44
2023/04/19 05:08:18;;;;;;;11.55;6.78;;;3.90;99.90;;;;;;5036821;28;20734;-43
2023/04/19 05:10:44;;;;;;;11.30;6.70;;;3.80;99.90;;;;;;5031755;28;20498;-43
2023/04/19 05:13:09;;;;;;;12.27;6.38;;;3.80;99.90;;;;;;5036419;28;20382;-44
2023/04/19 05:15:35;;;;;;;10.55;5.68;;;4.20;99.90;;;;;;5037368;28;20444;-45
2023/04/19 05:18:01;;;;;;;8.13;5.78;;;5.30;99.90;;;;;;5028990;28;20041;-42
2023/04/19 05:20:28;;;;;;;10.00;5.53;;;5.70;99.90;;;;;;5009945;28;20047;-44
2023/04/19 05:22:58;;;;;;;8.05;5.10;;;7.40;99.90;;;;;;5019682;28;20044;-43
2023/04/19 05:25:23;;;;;;;10.18;4.95;;;7.90;99.90;;;;;;5027801;28;20083;-43
2023/04/19 05:27:49;;;;;;;10.32;5.72;;;8.90;99.40;;;;;;5033782;28;20132;-43
2023/04/19 05:30:15;;;;;;;8.15;4.90;;;9.40;96.10;;;;;;5040034;28;20049;-44
2023/04/19 05:32:41;;;;;;;9.00;4.13;;;8.90;95.80;;;;;;5031783;28;20041;-45
2023/04/19 05:35:07;;;;;;;11.98;4.70;;;10.00;95.90;;;;;;5015224;28;20132;-45
2023/04/19 05:37:32;;;;;;;6.32;4.25;;;10.00;93.10;;;;;;5038445;28;20052;-46
2023/04/19 05:39:58;;;;;;;6.20;4.13;;;10.80;93.20;;;;;;5030045;28;20056;-45
2023/04/19 05:42:24;;;;;;;8.13;4.10;;;11.20;94.20;;;;;;5034802;28;20045;-43
2023/04/19 05:44:50;;;;;;;13.18;4.10;;;11.90;92.70;;;;;;5029886;28;20041;-43
2023/04/19 05:47:16;;;;;;;6.57;3.58;;;12.20;91.20;;;;;;5036680;28;20045;-44
2023/04/19 05:49:42;;;;;;;5.68;3.75;;;12.00;89.50;;;;;;5028133;28;20049;-45
2023/04/19 05:52:07;;;;;;;6.75;3.40;;;12.40;90.50;;;;;;5033940;28;20041;-47
2023/04/19 05:54:34;;;;;;;5.25;3.20;;;12.70;82.10;;;;;;5025673;28;20083;-45
2023/04/19 05:57:01;;;;;;;6.50;3.40;;;13.50;79.50;;;;;;5032841;28;20049;-43
2023/04/19 05:59:27;;;;;;;6.03;3.00;;;13.70;75.50;;;;;;5022010;28;20047;-45
2023/04/19 06:01:54;;;;;;;5.72;3.28;;;13.90;77.50;;;;;;5043397;28;20361;-45
2023/04/19 06:04:20;;;;;;;5.18;3.15;;;14.70;76.70;;;;;;5034476;28;20927;-44
2023/04/19 06:06:46;;;;;;;5.43;2.55;;;14.40;75.60;;;;;;5035920;28;20120;-45
2023/04/19 06:09:13;;;;;;;6.43;3.05;;;13.40;77.70;;;;;;5029706;28;20129;-45
2023/04/19 06:11:39;;;;;;;4.38;2.72;;;13.80;75.90;;;;;;5033118;28;20052;-44
2023/04/19 06:14:05;;;;;;;4.93;2.88;;;14.10;75.40;;;;;;5027969;28;20053;-47
2023/04/19 06:16:31;;;;;;;5.15;2.63;;;14.40;74.40;;;;;;5033883;28;20063;-47
2023/04/19 06:18:56;;;;;;;6.45;3.08;;;14.80;74.50;;;;;;5034516;28;20049;-44
2023/04/19 06:21:22;;;;;;;5.22;2.85;;;15.10;73.40;;;;;;5038735;28;20041;-46
2023/04/19 06:23:48;;;;;;;5.47;2.70;;;15.70;71.20;;;;;;5032848;28;20040;-45
2023/04/19 06:26:13;;;;;;;5.45;2.50;;;15.50;72.00;;;;;;5029269;28;20088;-43
2023/04/19 06:28:39;;;;;;;4.38;2.78;;;15.70;70.60;;;;;;5031499;28;20036;-45
2023/04/19 06:31:05;;;;;;;6.72;3.10;;;15.90;70.30;;;;;;5025247;28;20153;-45
2023/04/19 06:33:30;;;;;;;3.92;2.20;;;15.90;69.30;;;;;;5007860;28;20041;-46
2023/04/19 06:35:56;;;;;;;7.75;2.58;;;16.10;67.80;;;;;;5029750;28;20072;-48
2023/04/19 06:38:22;;;;;;;8.80;2.60;;;15.50;69.30;;;;;;5032242;28;20140;-45
2023/04/19 06:40:47;;;;;;;5.38;2.25;;;15.50;69.00;;;;;;5028505;28;20832;-44
2023/04/19 06:43:13;;;;;;;4.38;2.13;;;15.60;68.60;;;;;;5028672;28;20923;-45
2023/04/19 06:45:39;;;;;;;3.90;2.13;;;15.40;68.40;;;;;;5041235;28;20041;-47
2023/04/19 06:48:05;;;;;;;5.18;2.38;;;15.10;69.60;;;;;;5025740;28;20033;-44
2023/04/19 06:50:30;;;;;;;5.30;2.70;;;14.90;69.80;;;;;;5035969;28;20562;-46
2023/04/19 06:52:56;;;;;;;3.15;2.25;;;14.90;69.80;;;;;;5021381;28;20041;-45
2023/04/19 06:55:22;;;;;;;4.47;2.28;;;15.10;69.50;;;;;;5031041;28;20045;-46
2023/04/19 06:57:48;;;;;;;5.32;2.25;;;14.80;67.40;;;;;;5032939;28;20490;-47
2023/04/19 07:00:14;;;;;;;3.58;1.60;;;14.70;67.70;;;;;;5032734;28;20040;-45
2023/04/19 07:02:39;;;;;;;4.10;2.25;;;14.90;68.30;;;;;;5026501;28;20045;-45
2023/04/19 07:05:07;;;;;;;3.80;1.98;;;14.90;67.00;;;;;;5037745;28;20083;-46
2023/04/19 07:07:33;;;;;;;4.47;1.73;;;14.60;67.10;;;;;;5030709;28;20076;-45
2023/04/19 07:27:57;;;;;;;3.45;1.67;;;11.80;72.20;;;;;;5026968;28;20039;-45
2023/04/19 07:38:48;;;;;;;3.90;1.70;;;11.40;72.40;;;;;;5035617;28;20119;-45
2023/04/19 07:41:14;;;;;;;3.55;1.55;;;11.20;74.90;;;;;;5020281;28;21352;-44
2023/04/19 07:43:40;;;;;;;4.68;1.98;;;11.00;74.70;;;;;;5025170;28;20041;-44
2023/04/19 07:46:10;;;;;;;5.00;1.85;;;10.70;75.00;;;;;;5011388;28;20049;-45
2023/04/19 07:48:37;;;;;;;4.25;1.95;;;10.60;75.60;;;;;;5017628;28;20056;-43
2023/04/19 07:51:15;;;;;;;6.18;2.50;;;10.50;75.60;;;;;;4998880;28;20044;-47
2023/04/19 07:53:42;;;;;;;3.30;1.77;;;10.60;76.80;;;;;;5032446;28;20129;-43
2023/04/19 07:56:08;;;;;;;5.65;1.85;;;10.80;77.20;;;;;;5033049;28;20047;-44
2023/04/19 07:58:38;;;;;;;4.22;1.60;;;11.00;76.60;;;;;;5029457;28;20553;-44
2023/04/19 08:01:04;;;;;;;3.08;1.65;;;11.10;74.30;;;;;;5032452;28;20060;-44
2023/04/19 08:03:32;;;;;;;4.65;1.45;;;11.30;75.00;;;;;;5025256;28;20049;-44
2023/04/19 08:06:00;;;;;;;3.50;1.92;;;11.20;74.10;;;;;;5023456;28;20077;-46
2023/04/19 08:08:26;;;;;;;3.03;1.30;;;11.30;75.10;;;;;;5024090;28;20041;-48
2023/04/19 08:10:55;;;;;;;3.20;1.38;;;11.40;74.90;;;;;;5023677;28;20156;-46
2023/04/19 08:13:21;;;;;;;3.05;1.30;;;12.10;75.50;;;;;;5028393;28;20043;-45
2023/04/19 08:15:47;;;;;;;2.08;1.08;;;12.20;74.60;;;;;;5033872;28;20032;-45
2023/04/19 08:18:13;;;;;;;2.65;1.13;;;12.90;73.60;;;;;;5043250;28;20037;-45
2023/04/19 08:20:41;;;;;;;5.32;1.70;;;13.50;70.40;;;;;;5034020;28;20134;-44
2023/04/19 08:23:08;;;;;;;4.32;1.50;;;14.00;69.00;;;;;;5033241;28;20085;-45
2023/04/19 08:25:34;;;;;;;2.72;1.20;;;14.40;67.30;;;;;;5032114;28;20050;-44
2023/04/19 08:28:00;;;;;;;3.20;0.80;;;15.00;66.80;;;;;;5032025;28;20049;-47
2023/04/19 08:30:26;;;;;;;2.90;0.85;;;15.50;65.50;;;;;;5026615;28;20391;-44
2023/04/19 08:32:52;;;;;;;2.83;1.20;;;16.10;63.90;;;;;;5012551;28;20049;-46
2023/04/19 08:35:17;;;;;;;2.85;0.82;;;16.30;63.50;;;;;;5031075;28;20037;-44
2023/04/19 08:37:43;;;;;;;1.90;0.57;;;16.40;62.50;;;;;;5039754;28;20048;-44
2023/04/19 08:40:10;;;;;;;6.50;0.98;;;16.70;61.70;;;;;;5046992;28;20037;-43
2023/04/19 08:42:36;;;;;;;3.33;0.93;;;16.90;60.50;;;;;;5034210;28;20480;-43
2023/04/19 08:45:05;;;;;;;2.38;0.88;;;17.10;60.20;;;;;;5033688;28;20048;-44
2023/04/19 08:47:34;;;;;;;3.78;0.90;;;17.10;59.90;;;;;;5012041;28;20041;-46
2023/04/19 08:50:02;;;;;;;1.65;0.80;;;17.20;59.90;;;;;;5033339;28;20115;-44
2023/04/19 08:52:29;;;;;;;3.55;0.80;;;17.10;60.40;;;;;;5030113;28;20140;-47
2023/04/19 08:54:56;;;;;;;2.13;0.90;;;17.00;60.10;;;;;;5029933;28;20041;-45
2023/04/19 08:57:21;;;;;;;2.10;0.90;;;17.00;59.80;;;;;;5027547;28;20077;-44
2023/04/19 08:59:51;;;;;;;1.77;0.65;;;16.70;59.70;;;;;;5033640;28;20126;-46
2023/04/19 09:02:16;;;;;;;1.98;0.60;;;16.30;60.10;;;;;;5036654;28;20360;-47
2023/04/19 09:04:42;;;;;;;3.10;0.75;;;16.20;61.80;;;;;;5039093;28;20056;-48
2023/04/19 09:07:08;;;;;;;3.47;0.80;;;16.30;61.10;;;;;;5029542;28;20067;-46
2023/04/19 09:09:35;;;;;;;1.90;0.88;;;16.30;59.50;;;;;;5021068;28;20056;-45
2023/04/19 09:12:01;;;;;;;2.53;0.70;;;16.40;59.60;;;;;;5032186;28;20491;-45
2023/04/19 09:14:28;;;;;;;4.70;0.80;;;16.50;59.20;;;;;;5031531;28;20041;-44
2023/04/19 09:17:02;;;;;;;2.75;0.85;;;16.90;59.30;;;;;;5039470;28;20148;-45
2023/04/19 09:19:45;;;;;;;3.53;0.90;;;17.10;58.50;;;;;;5014658;28;20053;-46
2023/04/19 09:22:14;;;;;;;1.80;0.80;;;17.50;56.40;;;;;;5039934;28;20041;-45
2023/04/19 09:24:40;;;;;;;2.30;0.70;;;17.80;59.40;;;;;;5033279;28;20106;-47
2023/04/19 09:27:06;;;;;;;2.50;0.77;;;18.00;56.30;;;;;;5029406;28;20041;-46
2023/04/19 09:29:31;;;;;;;3.58;0.82;;;18.00;56.10;;;;;;5044819;28;20162;-44
2023/04/19 09:36:22;;;;;;;3.95;0.60;;;17.60;54.80;;;;;;5031562;28;20106;-44
2023/04/19 09:38:49;;;;;;;2.42;0.70;;;17.20;57.30;;;;;;5037163;28;20048;-45
2023/04/19 09:41:16;;;;;;;3.33;1.00;;;16.80;56.70;;;;;;5022947;28;20052;-46
2023/04/19 09:43:42;;;;;;;1.77;0.55;;;16.80;58.00;;;;;;5041129;28;20045;-44
2023/04/19 09:46:08;;;;;;;5.53;0.70;;;16.60;57.60;;;;;;5040449;28;20037;-45
2023/04/19 09:48:35;;;;;;;2.67;0.73;;;16.70;58.10;;;;;;5029511;28;20509;-47
2023/04/19 09:51:01;;;;;;;5.63;0.63;;;16.70;55.80;;;;;;5030894;28;20041;-47
2023/04/19 09:53:39;;;;;;;2.05;0.70;;;16.70;52.70;;;;;;5035055;28;20495;-46
2023/04/19 09:56:55;;;;;;;6.95;0.50;;;16.80;51.50;;;;;;5029727;28;20049;-49
2023/04/19 10:06:36;;;;;;;2.30;0.43;;;16.20;53.50;;;;;;5036134;28;20055;-49
2023/04/19 10:09:18;;;;;;;3.10;0.50;;;15.90;53.50;;;;;;5020758;28;20040;-50
2023/04/19 10:19:33;;;;;;;3.00;0.88;;;15.60;53.50;;;;;;5013207;28;20406;-47
2023/04/19 10:34:39;;;;;;;2.72;0.55;;;15.60;52.00;;;;;;5026686;28;20075;-48
2023/04/19 10:52:04;;;;;;;2.13;0.30;;;15.30;52.20;;;;;;5024752;28;20555;-44
2023/04/19 11:09:45;;;;;;;2.20;0.70;;;14.20;57.60;;;;;;5030544;28;20088;-49
2023/04/19 11:12:13;;;;;;;1.90;0.55;;;14.10;62.30;;;;;;5026765;28;20035;-48
2023/04/19 11:14:40;;;;;;;1.48;0.60;;;14.30;62.90;;;;;;5023899;28;20094;-46
2023/04/19 11:17:26;;;;;;;1.92;0.82;;;13.90;61.60;;;;;;5029905;28;20218;-49
2023/04/19 11:19:56;;;;;;;1.75;0.93;;;13.90;61.40;;;;;;5042208;28;20044;-49
2023/04/19 11:22:43;;;;;;;4.70;1.83;;;13.80;57.60;;;;;;5038620;28;20048;-49
2023/04/19 11:25:19;;;;;;;2.20;0.68;;;13.80;57.50;;;;;;5042192;28;20036;-47
2023/04/19 11:28:38;;;;;;;1.83;0.52;;;13.80;59.50;;;;;;5041641;28;20502;-48
2023/04/19 11:34:39;;;;;;;4.25;1.08;;;13.90;59.80;;;;;;5026914;28;20096;-47
2023/04/19 11:37:23;;;;;;;2.63;0.90;;;13.90;60.70;;;;;;5006783;28;20485;-50
2023/04/19 11:39:49;;;;;;;2.65;0.88;;;13.90;59.80;;;;;;5024192;28;20052;-48
2023/04/19 11:42:19;;;;;;;5.38;1.20;;;13.90;62.30;;;;;;5032985;28;20041;-51
2023/04/19 11:44:49;;;;;;;2.95;1.00;;;14.00;62.90;;;;;;5027942;28;20118;-49
2023/04/19 11:47:15;;;;;;;16.70;1.52;;;14.10;63.10;;;;;;5026221;28;20033;-49
2023/04/19 11:49:40;;;;;;;8.23;1.10;;;14.20;63.20;;;;;;5029001;28;20053;-48
2023/04/19 11:52:06;;;;;;;2.50;1.40;;;14.20;61.30;;;;;;5010431;28;20049;-47
2023/04/19 11:54:32;;;;;;;3.67;1.30;;;14.30;60.60;;;;;;5031539;28;20045;-51
2023/04/19 11:57:06;;;;;;;6.15;1.08;;;14.20;60.70;;;;;;5032260;28;20048;-46
2023/04/19 11:59:34;;;;;;;2.20;1.08;;;14.10;59.10;;;;;;5036155;28;20112;-47
2023/04/19 12:02:10;;;;;;;3.33;1.42;;;13.90;59.70;;;;;;5026290;28;20036;-46
2023/04/19 12:04:37;;;;;;;3.08;1.52;;;14.10;60.30;;;;;;5025970;28;20526;-50
2023/04/19 12:07:05;;;;;;;3.75;1.98;;;14.00;61.40;;;;;;5033882;28;20045;-50
2023/04/19 12:09:35;;;;;;;10.95;1.70;;;14.00;61.50;;;;;;5034413;28;20399;-47
2023/04/19 12:12:02;;;;;;;2.72;1.70;;;12.30;60.10;;;;;;5031806;28;20743;-50
2023/04/19 12:14:28;;;;;;;5.00;1.58;;;14.00;62.10;;;;;;5038957;28;20490;-48
2023/04/19 12:17:07;;;;;;;2.78;1.40;;;14.00;61.70;;;;;;5032258;28;20483;-50
2023/04/19 12:19:41;;;;;;;2.50;1.35;;;14.00;63.30;;;;;;5034620;28;20041;-49
2023/04/19 12:22:14;;;;;;;2.90;1.52;;;14.00;62.60;;;;;;5033149;28;20123;-47
2023/04/19 12:24:40;;;;;;;9.32;2.03;;;14.00;62.30;;;;;;5035486;28;20048;-48
2023/04/19 12:27:07;;;;;;;2.78;1.52;;;13.90;61.80;;;;;;5031487;28;20094;-49
2023/04/19 12:29:33;;;;;;;3.42;1.63;;;13.80;62.50;;;;;;5032077;28;20144;-49
2023/04/19 12:32:00;;;;;;;3.63;1.50;;;13.90;61.80;;;;;;5028102;28;20045;-48
2023/04/19 12:34:26;;;;;;;4.22;1.33;;;13.90;62.30;;;;;;5033920;28;20049;-48
2023/04/19 12:36:52;;;;;;;10.27;1.67;;;13.90;62.70;;;;;;5031889;28;20107;-46
2023/04/19 12:39:18;;;;;;;5.40;1.70;;;14.00;63.60;;;;;;5041837;28;20119;-45
2023/04/19 12:41:43;;;;;;;5.05;1.25;;;14.10;64.00;;;;;;5027646;28;20088;-49
2023/04/19 12:44:09;;;;;;;2.42;1.40;;;14.20;64.20;;;;;;5028462;28;20152;-46
2023/04/19 12:46:35;;;;;;;2.50;1.40;;;14.10;63.90;;;;;;5038964;28;20121;-47
2023/04/19 12:56:42;;;;;;;3.88;1.30;;;14.30;64.80;;;;;;5030655;28;20044;-46
2023/04/19 12:59:26;;;;;;;6.35;1.85;;;14.30;64.90;;;;;;5017158;28;20314;-49
2023/04/19 13:01:57;;;;;;;3.08;1.60;;;14.30;64.90;;;;;;5018319;28;20069;-47
2023/04/19 13:04:58;;;;;;;3.28;1.48;;;14.30;65.20;;;;;;5019303;28;20037;-47
2023/04/19 13:07:48;;;;;;;2.80;1.17;;;14.40;62.00;;;;;;4953933;28;20915;-49
2023/04/19 13:10:29;;;;;;;2.88;0.70;;;14.30;64.20;;;;;;4911795;28;20141;-46
2023/04/19 13:13:10;;;;;;;2.70;1.10;;;14.40;63.60;;;;;;4967796;28;20046;-47
2023/04/19 13:16:32;;;;;;;4.35;1.23;;;14.40;65.60;;;;;;4954173;28;20045;-46
2023/04/19 13:18:57;;;;;;;3.35;0.95;;;14.40;64.00;;;;;;5020191;28;20052;-47
2023/04/19 13:22:16;;;;;;;8.95;0.90;;;14.40;64.80;;;;;;5026423;28;20037;-49
2023/04/19 13:32:06;;;;;;;3.15;1.02;;;14.50;63.00;;;;;;5027336;28;20635;-47
2023/04/19 13:38:36;;;;;;;2.17;0.73;;;14.40;61.10;;;;;;5016466;28;20059;-48
2023/04/19 13:41:03;;;;;;;2.83;0.98;;;14.40;62.60;;;;;;5027592;28;20056;-48
2023/04/19 13:51:35;;;;;;;4.38;1.15;;;14.40;60.90;;;;;;5022111;28;20044;-48
2023/04/19 14:34:46;;;;;;;3.63;1.00;;;14.10;61.60;;;;;;5026549;28;20639;-48
2023/04/19 15:07:03;;;;;;;1.48;0.70;;;13.90;59.20;;;;;;5016322;28;20095;-45
2023/04/19 15:21:37;;;;;;;1.50;0.50;;;13.30;57.40;;;;;;5020595;28;20044;-44
2023/04/19 15:24:12;;;;;;;2.42;0.70;;;13.30;59.50;;;;;;5029188;28;20044;-45
2023/04/19 15:34:36;;;;;;;2.25;0.80;;;13.10;58.50;;;;;;5031169;28;20051;-49
2023/04/19 15:37:24;;;;;;;1.85;0.70;;;13.00;60.40;;;;;;5003407;28;20053;-48
2023/04/19 15:40:39;;;;;;;2.03;0.67;;;13.00;59.40;;;;;;4989267;28;20055;-46
2023/04/19 15:43:38;;;;;;;2.42;0.90;;;12.90;59.30;;;;;;4922784;28;20048;-47
2023/04/19 15:46:04;;;;;;;1.25;0.60;;;12.90;60.80;;;;;;4941430;28;20038;-45
2023/04/19 15:48:33;;;;;;;2.05;0.70;;;12.90;62.40;;;;;;5021072;28;20053;-48
2023/04/19 15:51:11;;;;;;;2.75;0.70;;;12.90;63.00;;;;;;5029866;28;20662;-45
2023/04/19 15:53:45;;;;;;;1.85;0.73;;;12.80;63.20;;;;;;5029852;28;20036;-45
2023/04/19 15:56:19;;;;;;;2.95;0.70;;;12.80;63.20;;;;;;5032733;28;20069;-43
2023/04/19 15:59:03;;;;;;;1.55;0.73;;;12.80;61.20;;;;;;5026424;28;20668;-43
2023/04/19 16:02:23;;;;;;;6.40;1.02;;;12.80;63.30;;;;;;5016056;28;20041;-44
2023/04/19 16:12:45;;;;;;;1.92;0.70;;;12.70;63.30;;;;;;4991096;28;20029;-43
2023/04/19 16:16:11;;;;;;;3.28;1.00;;;12.70;63.30;;;;;;4989947;28;20050;-44
2023/04/19 16:21:50;;;;;;;2.45;0.90;;;12.60;65.90;;;;;;4926098;28;20040;-44
2023/04/19 16:27:58;;;;;;;3.55;0.73;;;12.50;58.60;;;;;;4941375;28;20243;-43
2023/04/19 16:34:05;;;;;;;2.33;1.02;;;12.40;59.80;;;;;;4950996;28;20038;-48
2023/04/19 16:41:32;;;;;;;2.40;0.80;;;12.30;58.30;;;;;;4992197;28;20068;-45
2023/04/19 16:48:19;;;;;;;4.10;0.80;;;12.10;54.60;;;;;;4989009;28;20136;-45
2023/04/19 17:02:03;;;;;;;2.42;1.00;;;11.80;56.40;;;;;;5013316;28;20099;-47